Solea — DBFI — position and weather

sailwx.info

Track history (hours):
 
Tides and Currents Weather Stations Pressure Air Temp Water Temp Dewpoint Dewpoint Depression Visibility Wind Speed Wind Dir Waves Ship Positions

Oceanographic research ship Solea (Germany)

Detailed information on ship capabilities available from University of Delaware's Ocean Information Center.

Last reported at 2020-Jul-03 16:30 UTC. Time now 2020-Jul-03 18:46 UTC.
Position N 53°48' E 007°29'.

Length 72 m; draft 5.3 m.

Type: Law enforcement. MMSI: 218692000.

Date/timePositionNaut miles runAvg speedWind from/ knotsBaromVisibWave heightAir tempDewpointWater temp
2020-Jul-03 16:30N 53°48' E 007°29'2 4.4
2020-Jul-03 16:01N 53°48' E 007°32'  
2020-Jun-30 15:09N 53°59' E 008°23'811.0
2020-Jun-30 14:27N 53°58' E 008°36'7 6.9
2020-Jun-30 13:25N 53°52' E 008°43'0 0.0
2020-Jun-29 16:11N 53°52' E 008°43'0 0.0
2020-Jun-28 22:11N 53°52' E 008°43'0 0.0
2020-Jun-28 21:17N 53°52' E 008°43'0 0.0
2020-Jun-28 14:17N 53°52' E 008°43'0 0.0
2020-Jun-28 11:41N 53°52' E 008°43'0 0.0
2020-Jun-28 04:59N 53°52' E 008°43'0 0.0
2020-Jun-28 02:29N 53°52' E 008°43'0 0.0
2020-Jun-28 01:29N 53°52' E 008°43'0 0.0
2020-Jun-27 22:59N 53°52' E 008°43'0 0.0
2020-Jun-27 22:29N 53°52' E 008°43'0 0.0
2020-Jun-27 19:29N 53°52' E 008°43'0 0.0
2020-Jun-27 18:59N 53°52' E 008°43'0 0.0
2020-Jun-26 05:41N 53°52' E 008°43'0 0.0
2020-Jun-26 05:05N 53°52' E 008°43'0 0.0
2020-Jun-26 02:29N 53°52' E 008°43'33 0.7
2020-Jun-24 00:57N 54°11' E 007°57'0 0.1
2020-Jun-23 21:24N 54°10' E 007°58'0 0.1
2020-Jun-23 18:16N 54°11' E 007°58'  
Track history (hours):
 
Tides and Currents Weather Stations Pressure Air Temp Water Temp Dewpoint Dewpoint Depression Visibility Wind Speed Wind Dir Waves Ship Positions

Oceanographic research ship Solea (Germany)

Detailed information on ship capabilities available from University of Delaware's Ocean Information Center.

Last reported at 2020-Jul-03 16:30 UTC. Time now 2020-Jul-03 18:46 UTC.
Position N 53°48' E 007°29'.

Length 72 m; draft 5.3 m.

Type: Law enforcement. MMSI: 218692000.

Date/timePositionNaut miles runAvg speedWind from/ knotsBaromVisibWave heightAir tempDewpointWater temp
2020-Jul-03 16:30N 53°48' E 007°29'2 4.4
2020-Jul-03 16:01N 53°48' E 007°32'  
2020-Jun-30 15:09N 53°59' E 008°23'811.0
2020-Jun-30 14:27N 53°58' E 008°36'7 6.9
2020-Jun-30 13:25N 53°52' E 008°43'0 0.0
2020-Jun-29 16:11N 53°52' E 008°43'0 0.0
2020-Jun-28 22:11N 53°52' E 008°43'0 0.0
2020-Jun-28 21:17N 53°52' E 008°43'0 0.0
2020-Jun-28 14:17N 53°52' E 008°43'0 0.0
2020-Jun-28 11:41N 53°52' E 008°43'0 0.0
2020-Jun-28 04:59N 53°52' E 008°43'0 0.0
2020-Jun-28 02:29N 53°52' E 008°43'0 0.0
2020-Jun-28 01:29N 53°52' E 008°43'0 0.0
2020-Jun-27 22:59N 53°52' E 008°43'0 0.0
2020-Jun-27 22:29N 53°52' E 008°43'0 0.0
2020-Jun-27 19:29N 53°52' E 008°43'0 0.0
2020-Jun-27 18:59N 53°52' E 008°43'0 0.0
2020-Jun-26 05:41N 53°52' E 008°43'0 0.0
2020-Jun-26 05:05N 53°52' E 008°43'0 0.0
2020-Jun-26 02:29N 53°52' E 008°43'33 0.7
2020-Jun-24 00:57N 54°11' E 007°57'0 0.1
2020-Jun-23 21:24N 54°10' E 007°58'0 0.1
2020-Jun-23 18:16N 54°11' E 007°58'  

Dump ship's entire track history